createdAt,value
2022-08-21T00:02:50.137Z,5.50
2022-08-21T00:05:40.129Z,6.20
2022-08-21T00:08:29.359Z,5.03
2022-08-21T00:11:19.682Z,5.00
2022-08-21T00:14:09.691Z,5.33
2022-08-21T00:16:59.038Z,4.50
2022-08-21T00:19:49.105Z,5.17
2022-08-21T00:22:38.587Z,5.10
2022-08-21T00:25:27.988Z,6.00
2022-08-21T00:28:18.944Z,6.17
2022-08-21T00:31:07.880Z,5.70
2022-08-21T00:34:00.978Z,5.43
2022-08-21T00:36:50.093Z,4.70
2022-08-21T00:39:39.043Z,4.30
2022-08-21T00:42:28.492Z,5.00
2022-08-21T00:45:19.025Z,4.97
2022-08-21T00:48:08.095Z,5.50
2022-08-21T00:50:59.668Z,4.83
2022-08-21T00:53:51.721Z,5.83
2022-08-21T00:56:42.724Z,4.20
2022-08-21T00:59:35.202Z,5.30
2022-08-21T01:02:25.417Z,5.67
2022-08-21T01:05:15.018Z,5.10
2022-08-21T01:08:05.266Z,5.73
2022-08-21T01:10:55.481Z,5.27
2022-08-21T01:13:47.314Z,5.83
2022-08-21T01:16:36.174Z,5.53
2022-08-21T01:19:26.604Z,5.70
2022-08-21T01:22:16.815Z,5.10
2022-08-21T01:25:06.356Z,4.80
2022-08-21T01:27:55.212Z,5.10
2022-08-21T01:30:45.241Z,5.37
2022-08-21T01:33:34.376Z,5.43
2022-08-21T01:36:23.313Z,3.47
2022-08-21T01:39:14.100Z,4.00
2022-08-21T01:42:03.227Z,4.87
2022-08-21T01:44:54.769Z,4.90
2022-08-21T01:47:45.800Z,4.50
2022-08-21T01:50:34.786Z,5.20
2022-08-21T01:53:33.103Z,4.60
2022-08-21T01:56:23.621Z,4.47
2022-08-21T01:59:12.603Z,5.53
2022-08-21T02:02:01.727Z,5.47
2022-08-21T02:04:50.562Z,4.53
2022-08-21T02:07:40.309Z,5.30
2022-08-21T02:10:33.069Z,3.90
2022-08-21T02:13:23.870Z,5.40
2022-08-21T02:16:13.508Z,5.00
2022-08-21T02:19:08.470Z,5.47
2022-08-21T02:21:57.455Z,5.70
2022-08-21T02:24:54.106Z,6.80
2022-08-21T02:27:44.481Z,6.70
2022-08-21T02:30:38.523Z,5.33
2022-08-21T02:33:28.139Z,6.80
2022-08-21T02:36:17.089Z,6.80
2022-08-21T02:39:06.014Z,6.60
2022-08-21T02:41:54.990Z,6.63
2022-08-21T02:44:43.826Z,6.80
2022-08-21T02:47:34.015Z,7.03
2022-08-21T02:50:23.874Z,6.80
2022-08-21T02:53:17.305Z,6.60
2022-08-21T02:56:07.453Z,8.60
2022-08-21T02:58:56.295Z,7.37
2022-08-21T03:01:45.225Z,7.40
2022-08-21T03:04:35.588Z,7.47
2022-08-21T03:07:26.957Z,7.27
2022-08-21T03:10:16.377Z,8.13
2022-08-21T03:13:05.508Z,8.50
2022-08-21T03:15:54.388Z,7.80
2022-08-21T03:18:43.235Z,7.37
2022-08-21T03:21:34.112Z,8.20
2022-08-21T03:24:23.037Z,8.90
2022-08-21T03:27:13.377Z,8.67
2022-08-21T03:30:03.615Z,7.73
2022-08-21T03:32:52.640Z,8.10
2022-08-21T03:35:43.383Z,8.57
2022-08-21T03:38:34.314Z,8.57
2022-08-21T03:41:24.053Z,8.23
2022-08-21T03:44:12.906Z,8.63
2022-08-21T03:47:01.719Z,9.30
2022-08-21T03:49:51.451Z,8.50
2022-08-21T03:52:40.303Z,9.70
2022-08-21T03:55:30.715Z,9.50
2022-08-21T03:58:21.897Z,8.40
2022-08-21T04:01:10.822Z,9.37
2022-08-21T04:03:59.810Z,7.90
2022-08-21T04:06:48.719Z,8.33
2022-08-21T04:09:37.609Z,7.67
2022-08-21T04:12:27.903Z,8.80
2022-08-21T04:15:16.738Z,8.13
2022-08-21T04:18:06.368Z,8.13
2022-08-21T04:20:56.297Z,8.00
2022-08-21T04:23:45.253Z,7.80
2022-08-21T04:26:35.440Z,8.00
2022-08-21T04:29:25.709Z,9.07
2022-08-21T04:32:14.553Z,8.27
2022-08-21T04:35:04.902Z,8.20
2022-08-21T04:37:54.018Z,7.50
2022-08-21T04:40:42.867Z,9.00
2022-08-21T04:43:31.731Z,8.80
2022-08-21T04:46:21.892Z,9.30
2022-08-21T04:49:10.952Z,9.10
2022-08-21T04:51:59.847Z,8.83
2022-08-21T04:54:53.125Z,8.80
2022-08-21T04:57:48.298Z,8.10
2022-08-21T05:00:38.334Z,8.40
2022-08-21T05:03:28.630Z,8.90
2022-08-21T05:06:17.927Z,9.70
2022-08-21T05:09:07.575Z,10.87
2022-08-21T05:11:56.795Z,9.57
2022-08-21T05:14:45.686Z,8.60
2022-08-21T05:17:34.496Z,10.00
2022-08-21T05:20:24.790Z,10.20
2022-08-21T05:23:15.022Z,9.03
2022-08-21T05:26:05.246Z,10.17
2022-08-21T05:28:55.005Z,10.00
2022-08-21T05:31:46.331Z,11.63
2022-08-21T05:34:37.181Z,12.10
2022-08-21T05:37:27.725Z,10.93
2022-08-21T05:40:22.260Z,11.83
2022-08-21T05:43:12.120Z,12.07
2022-08-21T05:46:00.963Z,11.33
2022-08-21T05:48:49.817Z,9.07
2022-08-21T05:51:38.643Z,8.23
2022-08-21T05:54:28.831Z,9.10
2022-08-21T05:57:20.026Z,10.10
2022-08-21T06:00:10.377Z,9.13
2022-08-21T06:02:59.366Z,8.80
2022-08-21T06:05:48.735Z,8.40
2022-08-21T06:08:37.770Z,8.93
2022-08-21T06:11:29.150Z,10.47
2022-08-21T06:14:18.393Z,7.77
2022-08-21T06:17:07.323Z,8.47
2022-08-21T06:19:56.899Z,8.77
2022-08-21T06:22:45.770Z,9.30
2022-08-21T06:25:34.942Z,9.10
2022-08-21T06:28:25.272Z,9.13
2022-08-21T06:31:15.781Z,10.17
2022-08-21T06:34:04.611Z,8.07
2022-08-21T06:36:53.441Z,7.47
2022-08-21T06:39:45.766Z,6.50
2022-08-21T06:42:34.658Z,7.63
2022-08-21T06:45:25.120Z,9.83
2022-08-21T06:48:19.555Z,9.60
2022-08-21T06:51:08.512Z,8.77
2022-08-21T06:53:57.348Z,8.77
2022-08-21T06:56:48.307Z,9.60
2022-08-21T06:59:37.190Z,8.70
2022-08-21T07:02:27.502Z,7.67
2022-08-21T07:05:18.480Z,8.70
2022-08-21T07:08:07.773Z,8.27
2022-08-21T07:10:57.649Z,8.17
2022-08-21T07:13:46.537Z,7.23
2022-08-21T07:16:35.698Z,7.00
2022-08-21T07:19:26.234Z,6.97
2022-08-21T07:22:23.031Z,6.67
2022-08-21T07:25:12.096Z,6.23
2022-08-21T07:28:02.421Z,6.28
2022-08-21T07:30:53.260Z,6.78
2022-08-21T07:33:46.432Z,7.43
2022-08-21T07:36:36.606Z,6.53
2022-08-21T07:39:25.469Z,6.97
2022-08-21T07:42:14.788Z,7.30
2022-08-21T07:45:03.652Z,6.32
2022-08-21T07:47:57.146Z,6.93
2022-08-21T07:50:48.005Z,6.93
2022-08-21T07:53:38.769Z,6.72
2022-08-21T07:56:27.854Z,6.78
2022-08-21T07:59:17.535Z,6.85
2022-08-21T08:02:06.364Z,6.15
2022-08-21T08:04:55.213Z,6.80
2022-08-21T08:07:44.460Z,6.80
2022-08-21T08:10:34.803Z,7.45
2022-08-21T08:13:23.649Z,5.78
2022-08-21T08:16:12.899Z,6.95
2022-08-21T08:19:01.768Z,7.45
2022-08-21T08:21:50.603Z,6.43
2022-08-21T08:24:40.767Z,7.20
2022-08-21T08:27:31.133Z,6.38
2022-08-21T08:30:21.249Z,6.88
2022-08-21T08:33:10.511Z,7.03
2022-08-21T08:36:03.403Z,6.80
2022-08-21T08:38:55.457Z,6.75
2022-08-21T08:41:46.313Z,5.93
2022-08-21T08:44:37.108Z,4.47
2022-08-21T08:47:27.311Z,4.50
2022-08-21T08:50:19.914Z,4.43
2022-08-21T08:53:09.879Z,4.00
2022-08-21T08:56:00.178Z,6.05
2022-08-21T08:58:49.624Z,5.03
2022-08-21T09:01:39.852Z,3.75
2022-08-21T09:04:29.899Z,4.25
2022-08-21T09:07:20.581Z,3.13
2022-08-21T09:10:16.229Z,3.67
2022-08-21T09:13:22.579Z,3.78
2022-08-21T09:16:16.433Z,4.00
2022-08-21T09:19:10.626Z,3.35
2022-08-21T09:22:04.378Z,3.83
2022-08-21T09:24:58.026Z,3.50
2022-08-21T09:27:46.856Z,3.10
2022-08-21T09:30:35.772Z,2.92
2022-08-21T09:33:24.823Z,2.83
2022-08-21T09:36:25.302Z,2.72
2022-08-21T09:39:16.149Z,2.58
2022-08-21T09:42:07.369Z,2.90
2022-08-21T09:45:15.441Z,2.47
2022-08-21T09:48:14.542Z,2.92
2022-08-21T09:51:08.739Z,2.78
2022-08-21T09:54:00.533Z,2.75
2022-08-21T09:57:15.344Z,2.97
2022-08-21T10:00:14.440Z,2.38
2022-08-21T10:03:17.623Z,2.17
2022-08-21T10:06:09.676Z,2.38
2022-08-21T10:09:08.017Z,2.22
2022-08-21T10:12:01.534Z,3.05
2022-08-21T10:14:53.346Z,2.88
2022-08-21T10:17:47.386Z,2.10
2022-08-21T10:20:40.609Z,1.80
2022-08-21T10:23:37.002Z,2.10
2022-08-21T10:26:36.905Z,3.42
2022-08-21T10:29:34.931Z,2.22
2022-08-21T10:32:32.638Z,2.15
2022-08-21T10:35:25.783Z,2.05
2022-08-21T10:38:50.286Z,2.28
2022-08-21T10:41:46.427Z,2.47
2022-08-21T10:44:39.907Z,2.65
2022-08-21T10:47:32.487Z,2.58
2022-08-21T10:50:24.240Z,1.63
2022-08-21T10:53:28.094Z,2.38
2022-08-21T10:56:19.631Z,1.63
2022-08-21T10:59:26.667Z,2.05
2022-08-21T11:02:19.135Z,2.30
2022-08-21T11:05:09.746Z,2.45
2022-08-21T11:08:03.861Z,2.03
2022-08-21T11:10:59.287Z,2.72
2022-08-21T11:13:52.105Z,2.20
2022-08-21T11:16:43.967Z,1.77
2022-08-21T11:19:35.204Z,1.98
2022-08-21T11:22:29.613Z,1.90
2022-08-21T11:25:22.507Z,2.08
2022-08-21T11:28:14.892Z,1.52
2022-08-21T11:31:09.460Z,1.88
2022-08-21T11:34:06.707Z,1.88
2022-08-21T11:36:59.875Z,1.48
2022-08-21T11:39:54.732Z,1.75
2022-08-21T11:42:48.854Z,1.75
2022-08-21T11:45:42.201Z,1.90
2022-08-21T11:48:39.287Z,1.20
2022-08-21T11:51:31.376Z,1.60
2022-08-21T11:54:27.186Z,1.77
2022-08-21T11:57:18.679Z,1.40
2022-08-21T12:00:10.119Z,1.45
2022-08-21T12:03:01.106Z,1.50
2022-08-21T12:05:55.374Z,1.60
2022-08-21T12:08:46.981Z,1.45
2022-08-21T12:11:48.071Z,1.50
2022-08-21T12:14:40.821Z,1.17
2022-08-21T12:17:38.810Z,1.35
2022-08-21T12:20:39.616Z,1.50
2022-08-21T12:23:49.551Z,1.60
2022-08-21T12:26:39.089Z,2.15
2022-08-21T12:29:28.973Z,1.52
2022-08-21T12:32:27.235Z,1.25
2022-08-21T12:35:24.610Z,1.40
2022-08-21T12:38:17.761Z,1.63
2022-08-21T12:41:10.072Z,2.20
2022-08-21T12:44:07.071Z,1.60
2022-08-21T12:46:58.860Z,1.60
2022-08-21T12:49:55.972Z,1.35
2022-08-21T12:52:47.412Z,1.67
2022-08-21T12:55:39.080Z,1.48
2022-08-21T12:58:29.531Z,1.20
2022-08-21T13:01:21.483Z,1.70
2022-08-21T13:04:13.728Z,1.60
2022-08-21T13:07:02.892Z,1.50
2022-08-21T13:09:53.484Z,1.75
2022-08-21T13:12:43.688Z,1.50
2022-08-21T13:15:34.912Z,1.70
2022-08-21T13:18:24.628Z,1.50
2022-08-21T13:21:14.772Z,1.60
2022-08-21T13:24:38.724Z,1.15
2022-08-21T13:27:24.979Z,1.40
2022-08-21T13:30:15.630Z,1.60
2022-08-21T13:33:12.822Z,1.40
2022-08-21T13:36:05.315Z,1.30
2022-08-21T13:38:55.111Z,2.13
2022-08-21T13:41:46.626Z,1.90
2022-08-21T13:44:37.433Z,1.50
2022-08-21T13:47:26.531Z,2.10
2022-08-21T13:50:18.151Z,2.05
2022-08-21T13:53:08.013Z,2.17
2022-08-21T13:56:00.520Z,1.52
2022-08-21T13:58:49.878Z,1.58
2022-08-21T14:01:40.856Z,1.50
2022-08-21T14:04:36.693Z,1.33
2022-08-21T14:07:29.899Z,1.73
2022-08-21T14:10:20.449Z,1.35
2022-08-21T14:13:09.448Z,1.48
2022-08-21T14:15:59.707Z,1.23
2022-08-21T14:18:50.356Z,1.70
2022-08-21T14:21:41.340Z,1.58
2022-08-21T14:24:36.586Z,1.50
2022-08-21T14:27:25.720Z,1.50
2022-08-21T14:30:15.619Z,1.48
2022-08-21T14:33:05.299Z,1.60
2022-08-21T14:35:54.242Z,1.48
2022-08-21T14:38:32.602Z,1.40
2022-08-21T14:41:28.815Z,2.13
2022-08-21T14:44:19.962Z,1.30
2022-08-21T14:47:10.936Z,1.60
2022-08-21T14:50:03.793Z,1.88
2022-08-21T14:52:53.824Z,2.50
2022-08-21T14:56:00.627Z,1.52
2022-08-21T14:58:52.519Z,1.90
2022-08-21T15:01:42.193Z,1.33
2022-08-21T15:04:31.204Z,1.00
2022-08-21T15:07:20.076Z,0.80
2022-08-21T15:10:09.958Z,1.00
2022-08-21T15:13:01.869Z,1.30
2022-08-21T15:15:53.886Z,1.35
2022-08-21T15:18:43.875Z,1.25
2022-08-21T15:21:32.741Z,1.10
2022-08-21T15:24:21.771Z,1.27
2022-08-21T15:27:11.507Z,0.95
2022-08-21T15:30:01.208Z,1.38
2022-08-21T15:32:53.694Z,1.38
2022-08-21T15:35:42.994Z,2.13
2022-08-21T15:38:31.904Z,1.38
2022-08-21T15:41:21.022Z,1.80
2022-08-21T15:44:12.029Z,2.10
2022-08-21T15:47:01.502Z,1.40
2022-08-21T15:50:02.911Z,1.45
2022-08-21T15:52:52.927Z,1.50
2022-08-21T15:55:47.386Z,0.98
2022-08-21T15:58:36.305Z,1.20
2022-08-21T16:01:25.276Z,1.33
2022-08-21T16:04:17.085Z,0.90
2022-08-21T16:07:09.661Z,1.13
2022-08-21T16:09:59.922Z,1.45
2022-08-21T16:12:49.880Z,1.40
2022-08-21T16:15:39.260Z,1.25
2022-08-21T16:18:28.977Z,1.23
2022-08-21T16:21:17.859Z,1.23
2022-08-21T16:24:08.458Z,1.40
2022-08-21T16:26:58.295Z,0.95
2022-08-21T16:29:49.179Z,1.00
2022-08-21T16:32:38.119Z,1.70
2022-08-21T16:35:26.966Z,1.30
2022-08-21T16:38:17.233Z,1.63
2022-08-21T16:41:11.886Z,1.38
2022-08-21T16:44:01.657Z,1.50
2022-08-21T16:46:52.073Z,1.20
2022-08-21T16:49:40.919Z,1.53
2022-08-21T16:52:33.188Z,1.30
2022-08-21T16:55:23.432Z,1.50
2022-08-21T16:58:18.909Z,1.53
2022-08-21T17:01:10.739Z,1.23
2022-08-21T17:04:01.022Z,2.47
2022-08-21T17:06:50.199Z,1.03
2022-08-21T17:09:39.135Z,1.37
2022-08-21T17:12:28.101Z,1.30
2022-08-21T17:15:21.786Z,1.20
2022-08-21T17:18:12.182Z,1.40
2022-08-21T17:21:01.086Z,1.80
2022-08-21T17:23:54.142Z,2.13
2022-08-21T17:26:48.185Z,1.80
2022-08-21T17:29:47.965Z,1.93
2022-08-21T17:32:43.279Z,2.10
2022-08-21T17:35:34.397Z,2.83
2022-08-21T17:38:27.877Z,2.23
2022-08-21T17:41:22.525Z,1.80
2022-08-21T17:44:18.614Z,1.43
2022-08-21T17:47:11.766Z,1.40
2022-08-21T17:50:01.990Z,1.80
2022-08-21T17:52:50.954Z,2.17
2022-08-21T17:55:53.431Z,1.97
2022-08-21T17:58:44.729Z,1.70
2022-08-21T18:01:36.986Z,1.97
2022-08-21T18:04:26.024Z,1.87
2022-08-21T18:07:31.872Z,1.33
2022-08-21T18:10:21.740Z,1.20
2022-08-21T18:13:12.434Z,1.57
2022-08-21T18:16:01.831Z,1.50
2022-08-21T18:18:52.731Z,1.20
2022-08-21T18:21:41.687Z,1.43
2022-08-21T18:24:34.511Z,1.20
2022-08-21T18:27:29.046Z,2.23
2022-08-21T18:30:22.762Z,1.40
2022-08-21T18:33:13.839Z,1.50
2022-08-21T18:36:04.525Z,1.40
2022-08-21T18:38:53.586Z,1.70
2022-08-21T18:41:45.218Z,1.57
2022-08-21T18:44:34.204Z,2.27
2022-08-21T18:47:28.706Z,1.87
2022-08-21T18:50:18.633Z,1.87
2022-08-21T18:53:23.950Z,1.70
2022-08-21T18:56:16.617Z,2.00
2022-08-21T18:59:06.856Z,1.70
2022-08-21T19:01:55.739Z,1.63
2022-08-21T19:04:45.263Z,1.20
2022-08-21T19:07:34.395Z,1.40
2022-08-21T19:13:32.754Z,1.50
2022-08-21T19:16:23.614Z,1.20
2022-08-21T19:19:12.999Z,2.07
2022-08-21T19:22:03.525Z,1.40
2022-08-21T19:24:52.433Z,2.43
2022-08-21T19:27:41.360Z,1.73
2022-08-21T19:30:30.793Z,1.40
2022-08-21T19:33:24.153Z,1.70
2022-08-21T19:36:13.495Z,1.77
2022-08-21T19:39:03.795Z,1.60
2022-08-21T19:42:08.235Z,1.67
2022-08-21T19:45:01.516Z,1.13
2022-08-21T19:47:56.339Z,1.90
2022-08-21T19:50:57.721Z,1.93
2022-08-21T19:53:52.595Z,2.00
2022-08-21T19:56:49.391Z,1.50
2022-08-21T19:59:40.871Z,1.80
2022-08-21T20:02:30.902Z,1.50
2022-08-21T20:05:21.327Z,1.70
2022-08-21T20:08:20.786Z,2.20
2022-08-21T20:11:12.371Z,1.83
2022-08-21T20:14:07.803Z,1.70
2022-08-21T20:17:03.065Z,1.80
2022-08-21T20:19:57.367Z,2.50
2022-08-21T20:22:46.203Z,2.50
2022-08-21T20:25:36.745Z,2.03
2022-08-21T20:28:26.911Z,1.67
2022-08-21T20:31:17.661Z,1.60
2022-08-21T20:34:09.810Z,1.83
2022-08-21T20:36:58.662Z,2.00
2022-08-21T20:39:49.756Z,2.00
2022-08-21T20:45:51.412Z,2.13
2022-08-21T20:48:49.076Z,2.10
2022-08-21T20:51:40.465Z,2.10
2022-08-21T20:54:32.311Z,1.50
2022-08-21T20:57:24.285Z,2.43
2022-08-21T21:00:15.718Z,1.40
2022-08-21T21:03:08.276Z,1.30
2022-08-21T21:05:59.207Z,1.50
2022-08-21T21:08:52.085Z,1.80
2022-08-21T21:11:43.174Z,2.40
2022-08-21T21:14:35.201Z,1.30
2022-08-21T21:17:29.049Z,1.40
2022-08-21T21:20:24.937Z,2.20
2022-08-21T21:23:18.380Z,1.90
2022-08-21T21:26:09.675Z,1.60
2022-08-21T21:29:10.758Z,2.20
2022-08-21T21:31:59.876Z,1.83
2022-08-21T21:34:53.300Z,2.07
2022-08-21T21:37:44.699Z,1.73
2022-08-21T21:40:39.882Z,2.10
2022-08-21T21:43:36.628Z,2.07
2022-08-21T21:46:30.904Z,2.37
2022-08-21T21:49:32.989Z,1.57
2022-08-21T21:52:35.089Z,2.20
2022-08-21T21:55:34.978Z,2.30
2022-08-21T21:58:33.581Z,2.00
2022-08-21T22:01:27.899Z,2.33
2022-08-21T22:04:20.643Z,2.30
2022-08-21T22:07:17.628Z,2.30
2022-08-21T22:10:30.235Z,2.27
2022-08-21T22:13:26.704Z,2.53
2022-08-21T22:16:15.731Z,2.20
2022-08-21T22:19:15.250Z,5.47
2022-08-21T22:22:09.099Z,2.57
2022-08-21T22:25:00.705Z,2.57
2022-08-21T22:27:54.833Z,2.40
2022-08-21T22:30:47.951Z,2.13
2022-08-21T22:33:36.809Z,2.60
2022-08-21T22:36:29.692Z,2.63
2022-08-21T22:39:26.916Z,3.07
2022-08-21T22:42:21.711Z,3.60
2022-08-21T22:45:14.463Z,3.33
2022-08-21T22:48:05.972Z,3.00
2022-08-21T22:51:02.230Z,2.87
2022-08-21T22:53:55.031Z,3.37
2022-08-21T22:56:48.076Z,3.73
2022-08-21T22:59:54.533Z,3.50
2022-08-21T23:02:56.874Z,3.07
2022-08-21T23:05:46.201Z,3.70
2022-08-21T23:08:37.284Z,3.43
2022-08-21T23:11:28.346Z,3.23
2022-08-21T23:14:17.214Z,3.13
2022-08-21T23:17:10.149Z,4.03
2022-08-21T23:20:10.869Z,4.07
2022-08-21T23:23:07.881Z,3.90
2022-08-21T23:26:05.721Z,3.43
2022-08-21T23:29:02.760Z,3.90
2022-08-21T23:31:56.884Z,4.20
2022-08-21T23:34:48.211Z,4.70
2022-08-21T23:37:53.072Z,4.30
2022-08-21T23:40:51.199Z,4.80
2022-08-21T23:43:45.946Z,4.43
2022-08-21T23:46:46.327Z,3.10
2022-08-21T23:49:44.088Z,2.90
2022-08-21T23:52:38.656Z,4.30
2022-08-21T23:55:39.650Z,4.10
2022-08-21T23:58:32.548Z,4.70
